createdAt,value
2023-01-26T00:02:24.412Z,36.40
2023-01-26T00:04:51.715Z,39.03
2023-01-26T00:07:19.039Z,39.50
2023-01-26T00:09:46.265Z,39.77
2023-01-26T00:14:59.302Z,38.80
2023-01-26T00:17:26.509Z,38.50
2023-01-26T00:19:55.386Z,39.00
2023-01-26T00:22:22.795Z,40.17
2023-01-26T00:24:50.031Z,43.13
2023-01-26T00:27:17.458Z,40.07
2023-01-26T00:29:44.736Z,39.27
2023-01-26T00:32:11.975Z,35.83
2023-01-26T00:34:39.217Z,36.93
2023-01-26T00:37:06.471Z,38.03
2023-01-26T00:39:33.828Z,43.10
2023-01-26T00:42:09.704Z,42.30
2023-01-26T00:44:38.332Z,39.33
2023-01-26T00:47:09.668Z,39.33
2023-01-26T00:49:36.934Z,37.70
2023-01-26T00:52:04.838Z,37.10
2023-01-26T00:54:32.030Z,38.17
2023-01-26T00:56:59.233Z,36.90
2023-01-26T00:59:26.520Z,37.97
2023-01-26T01:01:54.373Z,42.87
2023-01-26T01:04:22.279Z,37.97
2023-01-26T01:06:49.646Z,38.73
2023-01-26T01:09:18.120Z,37.70
2023-01-26T01:11:45.820Z,43.53
2023-01-26T01:14:15.505Z,45.00
2023-01-26T01:16:43.966Z,40.63
2023-01-26T01:19:14.426Z,45.47
2023-01-26T01:21:42.461Z,42.63
2023-01-26T01:24:11.492Z,38.10
2023-01-26T01:26:39.666Z,41.20
2023-01-26T01:29:07.996Z,44.17
2023-01-26T01:31:35.391Z,41.60
2023-01-26T01:34:02.805Z,44.87
2023-01-26T01:36:31.315Z,40.40
2023-01-26T01:38:58.721Z,42.00
2023-01-26T01:41:27.144Z,42.17
2023-01-26T01:44:12.943Z,44.53
2023-01-26T01:46:40.978Z,43.53
2023-01-26T01:49:11.307Z,43.03
2023-01-26T01:51:45.195Z,47.43
2023-01-26T01:54:14.021Z,49.87
2023-01-26T01:56:43.714Z,53.70
2023-01-26T01:59:12.294Z,46.37
2023-01-26T02:01:39.648Z,54.73
2023-01-26T02:04:08.158Z,50.33
2023-01-26T02:06:53.837Z,49.00
2023-01-26T02:09:43.445Z,47.50
2023-01-26T02:12:12.253Z,56.07
2023-01-26T02:14:39.484Z,49.50
2023-01-26T02:17:06.869Z,52.80
2023-01-26T02:19:49.635Z,56.40
2023-01-26T02:22:43.270Z,58.37
2023-01-26T02:25:33.900Z,54.67
2023-01-26T02:28:01.486Z,57.77
2023-01-26T02:30:29.679Z,56.27
2023-01-26T02:32:57.094Z,55.33
2023-01-26T02:35:24.370Z,56.47
2023-01-26T02:37:51.883Z,52.17
2023-01-26T02:40:22.271Z,60.80
2023-01-26T02:42:49.626Z,55.23
2023-01-26T02:45:17.865Z,56.03
2023-01-26T02:47:46.702Z,54.93
2023-01-26T02:50:14.581Z,58.20
2023-01-26T02:52:44.170Z,55.90
2023-01-26T02:55:28.328Z,58.97
2023-01-26T02:58:00.112Z,52.70
2023-01-26T03:00:29.864Z,56.30
2023-01-26T03:02:58.760Z,54.67
2023-01-26T03:05:26.763Z,47.90
2023-01-26T03:07:56.107Z,44.20
2023-01-26T03:10:27.092Z,49.30
2023-01-26T03:12:54.590Z,42.57
2023-01-26T03:15:40.593Z,46.83
2023-01-26T03:18:28.372Z,47.70
2023-01-26T03:21:14.946Z,45.97
2023-01-26T03:24:01.175Z,40.97
2023-01-26T03:26:48.079Z,49.87
2023-01-26T03:29:15.424Z,48.20
2023-01-26T03:31:43.871Z,50.00
2023-01-26T03:34:11.433Z,49.13
2023-01-26T03:36:39.911Z,49.40
2023-01-26T03:39:32.188Z,52.33
2023-01-26T03:42:18.895Z,53.77
2023-01-26T03:45:05.912Z,56.27
2023-01-26T03:47:52.691Z,49.47
2023-01-26T03:50:39.131Z,55.90
2023-01-26T03:53:38.834Z,60.77
2023-01-26T03:56:23.037Z,54.57
2023-01-26T03:58:56.565Z,58.57
2023-01-26T04:01:27.797Z,49.27
2023-01-26T04:04:16.788Z,52.93
2023-01-26T04:07:06.257Z,51.97
2023-01-26T04:09:36.552Z,53.90
2023-01-26T04:12:04.602Z,46.57
2023-01-26T04:14:53.196Z,51.70
2023-01-26T04:17:42.961Z,50.87
2023-01-26T04:20:29.631Z,48.90
2023-01-26T04:22:57.110Z,52.40
2023-01-26T04:25:24.431Z,49.50
2023-01-26T04:27:52.440Z,46.53
2023-01-26T04:30:20.337Z,41.77
2023-01-26T04:32:48.383Z,47.70
2023-01-26T04:35:16.879Z,42.43
2023-01-26T04:37:44.563Z,44.47
2023-01-26T04:40:12.571Z,44.70
2023-01-26T04:42:41.103Z,40.00
2023-01-26T04:45:10.561Z,43.80
2023-01-26T04:47:39.075Z,44.57
2023-01-26T04:50:06.943Z,42.07
2023-01-26T04:52:34.525Z,49.20
2023-01-26T04:55:02.192Z,47.30
2023-01-26T04:57:32.098Z,47.07
2023-01-26T05:00:03.709Z,39.90
2023-01-26T05:02:31.093Z,43.80
2023-01-26T05:04:58.331Z,42.23
2023-01-26T05:07:25.816Z,39.93
2023-01-26T05:09:53.699Z,39.93
2023-01-26T05:12:45.344Z,41.50
2023-01-26T05:15:33.423Z,35.67
2023-01-26T05:18:19.378Z,36.00
2023-01-26T05:20:52.308Z,42.60
2023-01-26T05:23:25.755Z,48.30
2023-01-26T05:25:55.675Z,41.50
2023-01-26T05:28:23.074Z,41.43
2023-01-26T05:30:51.476Z,42.63
2023-01-26T05:33:22.188Z,37.23
2023-01-26T05:35:50.784Z,36.17
2023-01-26T05:38:18.415Z,48.30
2023-01-26T05:40:45.997Z,54.60
2023-01-26T05:43:14.617Z,35.17
2023-01-26T05:46:00.662Z,30.03
2023-01-26T05:48:28.069Z,34.47
2023-01-26T05:50:56.870Z,33.10
2023-01-26T05:53:24.216Z,31.97
2023-01-26T05:55:52.038Z,35.37
2023-01-26T05:58:22.753Z,32.10
2023-01-26T06:00:50.083Z,32.33
2023-01-26T06:03:24.390Z,33.63
2023-01-26T06:05:55.160Z,37.93
2023-01-26T06:08:41.268Z,35.13
2023-01-26T06:11:27.363Z,36.30
2023-01-26T06:14:06.355Z,38.13
2023-01-26T06:16:34.947Z,38.53
2023-01-26T06:19:03.651Z,34.37
2023-01-26T06:21:32.153Z,37.90
2023-01-26T06:24:00.248Z,62.60
2023-01-26T06:26:27.729Z,129.67
2023-01-26T06:28:57.217Z,40.17
2023-01-26T06:31:29.635Z,32.83
2023-01-26T06:33:59.224Z,37.20
2023-01-26T06:36:28.396Z,36.97
2023-01-26T06:38:57.689Z,41.20
2023-01-26T06:41:25.862Z,39.97
2023-01-26T06:43:53.606Z,39.43
2023-01-26T06:46:20.952Z,40.20
2023-01-26T06:48:52.457Z,39.87
2023-01-26T06:51:20.566Z,39.90
2023-01-26T06:54:06.826Z,40.80
2023-01-26T06:56:57.324Z,45.10
2023-01-26T06:59:51.027Z,45.37
2023-01-26T07:02:36.271Z,44.43
2023-01-26T07:05:03.828Z,41.50
2023-01-26T07:07:31.065Z,44.03
2023-01-26T07:09:58.573Z,44.23
2023-01-26T07:12:25.916Z,42.10
2023-01-26T07:14:53.242Z,44.13
2023-01-26T07:17:20.534Z,48.43
2023-01-26T07:19:47.750Z,51.83
2023-01-26T07:22:15.097Z,45.07
2023-01-26T07:24:42.358Z,51.50
2023-01-26T07:27:09.717Z,46.63
2023-01-26T07:29:37.262Z,51.23
2023-01-26T07:32:04.630Z,51.43
2023-01-26T07:34:32.012Z,51.87
2023-01-26T07:36:59.294Z,44.97
2023-01-26T07:39:26.890Z,45.90
2023-01-26T07:41:54.305Z,46.07
2023-01-26T07:44:34.224Z,43.50
2023-01-26T07:47:01.469Z,48.13
2023-01-26T07:49:28.783Z,46.07
2023-01-26T07:51:56.064Z,43.67
2023-01-26T07:54:23.393Z,47.53
2023-01-26T07:56:54.548Z,45.27
2023-01-26T07:59:22.279Z,47.83
2023-01-26T08:01:50.098Z,45.70
2023-01-26T08:04:17.455Z,47.20
2023-01-26T08:06:44.718Z,44.77
2023-01-26T08:09:12.272Z,45.67
2023-01-26T08:11:39.464Z,50.07
2023-01-26T08:14:06.784Z,43.30
2023-01-26T08:16:34.082Z,46.33
2023-01-26T08:19:01.544Z,41.93
2023-01-26T08:21:28.861Z,44.57
2023-01-26T08:24:14.781Z,45.20
2023-01-26T08:26:42.315Z,43.50
2023-01-26T08:29:09.520Z,42.50
2023-01-26T08:31:36.862Z,43.13
2023-01-26T08:34:04.477Z,47.27
2023-01-26T08:36:31.813Z,41.53
2023-01-26T08:38:59.072Z,47.50
2023-01-26T08:41:26.408Z,45.47
2023-01-26T08:43:54.050Z,45.27
2023-01-26T08:46:21.539Z,43.77
2023-01-26T08:51:33.465Z,38.70
2023-01-26T08:54:00.739Z,39.87
2023-01-26T08:56:28.139Z,44.77
2023-01-26T08:58:55.392Z,43.17
2023-01-26T09:01:22.848Z,46.37
2023-01-26T09:03:51.280Z,40.60
2023-01-26T09:06:18.564Z,43.50
2023-01-26T09:08:45.958Z,42.43
2023-01-26T09:11:13.301Z,42.77
2023-01-26T09:13:40.750Z,38.23
2023-01-26T09:16:08.936Z,44.57
2023-01-26T09:18:36.214Z,46.90
2023-01-26T09:21:06.732Z,46.20
2023-01-26T09:23:34.439Z,46.83
2023-01-26T09:26:02.117Z,46.10
2023-01-26T09:28:29.368Z,45.03
2023-01-26T09:30:56.814Z,51.13
2023-01-26T09:33:25.294Z,47.17
2023-01-26T09:35:52.551Z,45.53
2023-01-26T09:38:19.799Z,46.40
2023-01-26T09:41:06.223Z,47.10
2023-01-26T09:43:52.536Z,46.00
2023-01-26T09:46:27.384Z,46.93
2023-01-26T09:49:07.890Z,47.17
2023-01-26T09:51:37.719Z,43.83
2023-01-26T09:54:12.738Z,39.47
2023-01-26T09:56:40.383Z,45.93
2023-01-26T09:59:26.555Z,45.07
2023-01-26T10:02:03.113Z,44.57
2023-01-26T10:04:41.504Z,41.60
2023-01-26T10:07:13.219Z,39.13
2023-01-26T10:09:50.437Z,40.27
2023-01-26T10:12:17.895Z,45.03
2023-01-26T10:15:05.829Z,38.93
2023-01-26T10:17:35.331Z,40.83
2023-01-26T10:20:17.526Z,43.63
2023-01-26T10:22:55.659Z,39.27
2023-01-26T10:25:28.991Z,40.47
2023-01-26T10:27:56.301Z,41.30
2023-01-26T10:30:23.574Z,44.33
2023-01-26T10:32:52.581Z,41.87
2023-01-26T10:35:21.529Z,41.77
2023-01-26T10:37:49.694Z,41.53
2023-01-26T10:40:17.446Z,39.90
2023-01-26T10:43:03.627Z,40.27
2023-01-26T10:45:32.329Z,44.13
2023-01-26T10:48:18.112Z,39.87
2023-01-26T10:50:45.897Z,42.07
2023-01-26T10:53:30.100Z,41.10
2023-01-26T10:56:00.709Z,36.60
2023-01-26T10:58:40.316Z,39.57
2023-01-26T11:01:12.628Z,38.30
2023-01-26T11:03:40.270Z,35.47
2023-01-26T11:06:07.618Z,37.83
2023-01-26T11:08:36.098Z,40.80
2023-01-26T11:11:04.194Z,39.97
2023-01-26T11:13:31.425Z,37.40
2023-01-26T11:16:17.480Z,38.13
2023-01-26T11:18:54.029Z,35.90
2023-01-26T11:21:27.728Z,37.63
2023-01-26T11:23:58.407Z,42.63
2023-01-26T11:26:33.906Z,38.07
2023-01-26T11:29:21.450Z,38.77
2023-01-26T11:32:07.706Z,43.47
2023-01-26T11:34:41.189Z,39.83
2023-01-26T11:37:27.335Z,33.17
2023-01-26T11:39:54.613Z,37.23
2023-01-26T11:42:37.000Z,37.50
2023-01-26T11:45:12.149Z,36.50
2023-01-26T11:47:45.922Z,39.53
2023-01-26T11:50:45.710Z,38.43
2023-01-26T11:53:20.467Z,37.53
2023-01-26T11:56:06.526Z,36.07
2023-01-26T11:58:41.533Z,37.90
2023-01-26T12:01:16.216Z,34.87
2023-01-26T12:03:46.065Z,34.97
2023-01-26T12:06:20.874Z,36.80
2023-01-26T12:08:51.365Z,38.83
2023-01-26T12:11:23.385Z,38.57
2023-01-26T12:13:59.883Z,39.10
2023-01-26T12:16:42.211Z,37.97
2023-01-26T12:19:28.077Z,36.83
2023-01-26T12:21:58.352Z,33.60
2023-01-26T12:25:01.760Z,29.73
2023-01-26T12:27:20.492Z,30.67
2023-01-26T12:29:53.272Z,34.43
2023-01-26T12:32:22.542Z,33.60
2023-01-26T12:34:49.858Z,32.40
2023-01-26T12:37:22.964Z,28.23
2023-01-26T12:39:59.286Z,31.43
2023-01-26T12:42:29.629Z,28.70
2023-01-26T12:45:02.232Z,27.10
2023-01-26T12:47:37.997Z,29.10
2023-01-26T12:50:05.354Z,28.93
2023-01-26T12:52:32.701Z,29.97
2023-01-26T12:55:03.853Z,29.33
2023-01-26T12:57:34.946Z,30.67
2023-01-26T13:00:09.517Z,31.37
2023-01-26T13:02:38.104Z,26.83
2023-01-26T13:05:05.582Z,27.37
2023-01-26T13:07:37.549Z,25.57
2023-01-26T13:10:20.465Z,28.67
2023-01-26T13:12:56.917Z,28.50
2023-01-26T13:15:26.022Z,26.03
2023-01-26T13:17:54.649Z,27.03
2023-01-26T13:20:40.791Z,24.87
2023-01-26T13:23:27.015Z,26.20
2023-01-26T13:26:26.771Z,23.33
2023-01-26T13:29:14.016Z,25.33
2023-01-26T13:31:41.255Z,25.07
2023-01-26T13:34:09.893Z,23.07
2023-01-26T13:36:39.757Z,22.33
2023-01-26T13:39:13.569Z,22.33
2023-01-26T13:41:46.448Z,23.40
2023-01-26T13:44:24.547Z,22.23
2023-01-26T13:46:58.627Z,23.53
2023-01-26T13:49:38.218Z,24.20
2023-01-26T13:52:15.701Z,27.10
2023-01-26T13:54:44.139Z,20.83
2023-01-26T13:57:12.076Z,23.47
2023-01-26T13:59:52.632Z,24.07
2023-01-26T14:02:24.354Z,22.97
2023-01-26T14:04:53.140Z,22.90
2023-01-26T14:07:21.270Z,22.13
2023-01-26T14:09:49.824Z,23.00
2023-01-26T14:12:25.099Z,21.93
2023-01-26T14:14:54.643Z,23.27
2023-01-26T14:17:32.589Z,21.23
2023-01-26T14:20:19.291Z,23.13
2023-01-26T14:22:48.497Z,22.87
2023-01-26T14:25:20.680Z,21.17
2023-01-26T14:27:47.937Z,24.73
2023-01-26T14:30:23.764Z,23.30
2023-01-26T14:32:55.580Z,20.77
2023-01-26T14:35:41.863Z,21.83
2023-01-26T14:38:12.067Z,23.00
2023-01-26T14:40:45.622Z,19.47
2023-01-26T14:43:13.629Z,23.93
2023-01-26T14:45:44.343Z,19.60
2023-01-26T14:48:13.370Z,19.00
2023-01-26T14:50:41.193Z,21.97
2023-01-26T14:53:22.708Z,21.37
2023-01-26T14:55:51.038Z,20.77
2023-01-26T14:58:23.595Z,21.47
2023-01-26T15:00:50.995Z,19.60
2023-01-26T15:03:27.320Z,19.63
2023-01-26T15:06:05.860Z,19.80
2023-01-26T15:08:35.883Z,21.30
2023-01-26T15:11:23.019Z,18.17
2023-01-26T15:13:54.048Z,19.73
2023-01-26T15:16:23.013Z,19.60
2023-01-26T15:19:00.968Z,18.70
2023-01-26T15:21:43.687Z,21.03
2023-01-26T15:24:14.051Z,16.80
2023-01-26T15:26:42.009Z,18.50
2023-01-26T15:29:31.338Z,19.50
2023-01-26T15:31:58.780Z,20.20
2023-01-26T15:34:36.913Z,20.10
2023-01-26T15:37:05.673Z,20.50
2023-01-26T15:39:32.938Z,20.23
2023-01-26T15:42:16.821Z,23.80
2023-01-26T15:44:44.028Z,24.23
2023-01-26T15:47:13.452Z,19.23
2023-01-26T15:49:42.739Z,17.70
2023-01-26T15:52:13.527Z,20.67
2023-01-26T15:57:25.820Z,19.63
2023-01-26T15:59:53.351Z,18.57
2023-01-26T16:02:21.565Z,19.03
2023-01-26T16:04:49.296Z,17.97
2023-01-26T16:07:19.015Z,18.33
2023-01-26T16:09:48.226Z,19.80
2023-01-26T16:12:31.200Z,18.57
2023-01-26T16:14:59.471Z,20.17
2023-01-26T16:17:26.936Z,19.23
2023-01-26T16:19:54.278Z,20.00
2023-01-26T16:22:21.469Z,20.10
2023-01-26T16:24:48.763Z,21.13
2023-01-26T16:27:16.152Z,19.17
2023-01-26T16:29:43.399Z,20.17
2023-01-26T16:32:20.414Z,19.17
2023-01-26T16:34:47.722Z,20.60
2023-01-26T16:37:15.108Z,20.40
2023-01-26T16:39:42.331Z,23.07
2023-01-26T16:42:11.468Z,18.10
2023-01-26T16:44:38.942Z,20.10
2023-01-26T16:47:06.147Z,19.47
2023-01-26T16:49:33.905Z,19.17
2023-01-26T16:52:01.064Z,36.63
2023-01-26T16:54:28.382Z,29.93
2023-01-26T16:56:55.728Z,27.97
2023-01-26T16:59:23.010Z,20.20
2023-01-26T17:01:50.683Z,25.93
2023-01-26T17:04:18.203Z,29.00
2023-01-26T17:06:45.483Z,21.90
2023-01-26T17:09:12.740Z,19.73
2023-01-26T17:11:40.020Z,19.27
2023-01-26T17:14:07.565Z,22.07
2023-01-26T17:16:34.945Z,19.33
2023-01-26T17:19:02.242Z,18.00
2023-01-26T17:21:29.757Z,17.00
2023-01-26T17:23:59.260Z,16.83
2023-01-26T17:26:27.338Z,19.07
2023-01-26T17:28:56.323Z,17.03
2023-01-26T17:31:25.566Z,22.93
2023-01-26T17:33:56.406Z,21.33
2023-01-26T17:36:24.975Z,22.73
2023-01-26T17:38:53.509Z,20.37
2023-01-26T17:41:21.022Z,22.33
2023-01-26T17:43:48.291Z,23.00
2023-01-26T17:46:18.150Z,22.63
2023-01-26T17:48:45.859Z,20.10
2023-01-26T17:51:14.635Z,20.07
2023-01-26T17:53:42.715Z,17.53
2023-01-26T17:56:11.381Z,17.47
2023-01-26T17:58:38.897Z,18.67
2023-01-26T18:01:25.078Z,19.53
2023-01-26T18:03:53.634Z,20.47
2023-01-26T18:06:21.002Z,20.10
2023-01-26T18:08:48.560Z,17.47
2023-01-26T18:11:16.556Z,21.03
2023-01-26T18:13:44.334Z,15.90
2023-01-26T18:16:15.035Z,17.60
2023-01-26T18:18:42.558Z,14.00
2023-01-26T18:21:13.630Z,16.50
2023-01-26T18:23:43.827Z,18.00
2023-01-26T18:26:11.081Z,17.50
2023-01-26T18:28:39.742Z,17.40
2023-01-26T18:31:11.342Z,17.07
2023-01-26T18:33:38.604Z,15.20
2023-01-26T18:36:12.007Z,13.10
2023-01-26T18:38:40.235Z,15.57
2023-01-26T18:41:16.995Z,17.00
2023-01-26T18:43:45.102Z,17.33
2023-01-26T18:46:12.437Z,16.10
2023-01-26T18:48:39.757Z,16.93
2023-01-26T18:51:08.717Z,18.17
2023-01-26T18:53:38.597Z,18.70
2023-01-26T18:56:07.696Z,21.43
2023-01-26T18:58:35.154Z,22.00
2023-01-26T19:01:05.718Z,20.03
2023-01-26T19:03:33.482Z,19.70
2023-01-26T19:06:04.796Z,20.43
2023-01-26T19:08:32.881Z,25.03
2023-01-26T19:11:09.937Z,20.97
2023-01-26T19:13:41.937Z,24.07
2023-01-26T19:16:09.838Z,24.83
2023-01-26T19:18:37.314Z,25.20
2023-01-26T19:21:05.033Z,24.30
2023-01-26T19:23:33.997Z,24.23
2023-01-26T19:26:01.279Z,25.50
2023-01-26T19:28:28.676Z,25.63
2023-01-26T19:31:02.785Z,25.43
2023-01-26T19:33:31.646Z,26.37
2023-01-26T19:36:00.254Z,25.57
2023-01-26T19:38:46.368Z,23.07
2023-01-26T19:41:14.442Z,25.83
2023-01-26T19:43:42.146Z,25.43
2023-01-26T19:46:11.737Z,23.70
2023-01-26T19:48:39.296Z,24.73
2023-01-26T19:51:08.517Z,25.73
2023-01-26T19:53:37.453Z,24.73
2023-01-26T19:56:07.920Z,25.10
2023-01-26T19:58:35.575Z,27.60
2023-01-26T20:01:04.605Z,26.90
2023-01-26T20:03:32.242Z,26.53
2023-01-26T20:05:59.641Z,24.17
2023-01-26T20:08:28.170Z,26.87
2023-01-26T20:10:55.514Z,25.97
2023-01-26T20:13:22.827Z,23.50
2023-01-26T20:15:50.208Z,25.83
2023-01-26T20:18:18.511Z,24.53
2023-01-26T20:20:49.269Z,20.67
2023-01-26T20:23:16.597Z,23.70
2023-01-26T20:25:43.828Z,23.13
2023-01-26T20:28:11.302Z,22.97
2023-01-26T20:30:39.283Z,24.83
2023-01-26T20:33:07.003Z,23.97
2023-01-26T20:35:34.634Z,23.07
2023-01-26T20:38:01.981Z,21.53
2023-01-26T20:40:29.832Z,23.83
2023-01-26T20:42:57.142Z,24.00
2023-01-26T20:45:24.980Z,25.07
2023-01-26T20:47:53.070Z,21.67
2023-01-26T20:50:20.409Z,24.57
2023-01-26T20:52:47.737Z,23.80
2023-01-26T20:55:15.069Z,20.97
2023-01-26T20:57:42.705Z,20.13
2023-01-26T21:00:10.502Z,23.63
2023-01-26T21:02:38.038Z,21.53
2023-01-26T21:05:07.102Z,25.67
2023-01-26T21:07:34.428Z,22.97
2023-01-26T21:10:01.789Z,55.70
2023-01-26T21:12:29.448Z,22.47
2023-01-26T21:14:56.785Z,23.73
2023-01-26T21:17:24.531Z,21.23
2023-01-26T21:19:51.979Z,20.70
2023-01-26T21:22:21.033Z,21.83
2023-01-26T21:24:48.399Z,36.63
2023-01-26T21:27:16.115Z,46.13
2023-01-26T21:29:43.361Z,24.27
2023-01-26T21:32:10.621Z,19.73
2023-01-26T21:34:37.881Z,17.60
2023-01-26T21:37:06.450Z,20.40
2023-01-26T21:39:33.616Z,20.33
2023-01-26T21:42:01.219Z,22.37
2023-01-26T21:44:29.770Z,24.17
2023-01-26T21:47:01.046Z,22.60
2023-01-26T21:49:29.161Z,25.43
2023-01-26T21:52:15.811Z,24.03
2023-01-26T21:54:43.247Z,27.63
2023-01-26T21:57:30.190Z,29.70
2023-01-26T21:59:57.816Z,29.70
2023-01-26T22:02:25.238Z,28.20
2023-01-26T22:04:52.566Z,29.70
2023-01-26T22:07:20.069Z,28.83
2023-01-26T22:09:47.371Z,29.40
2023-01-26T22:12:14.589Z,29.73
2023-01-26T22:14:44.829Z,30.10
2023-01-26T22:17:12.102Z,29.70
2023-01-26T22:19:39.295Z,28.07
2023-01-26T22:22:06.551Z,30.87
2023-01-26T22:24:33.962Z,28.10
2023-01-26T22:27:01.491Z,30.27
2023-01-26T22:29:29.054Z,31.87
2023-01-26T22:31:56.271Z,29.10
2023-01-26T22:34:24.022Z,28.60
2023-01-26T22:36:51.258Z,28.97
2023-01-26T22:39:19.158Z,27.70
2023-01-26T22:41:46.429Z,26.17
2023-01-26T22:44:13.676Z,30.33
2023-01-26T22:46:40.957Z,26.40
2023-01-26T22:49:08.200Z,26.57
2023-01-26T22:51:38.924Z,25.80
2023-01-26T22:54:24.774Z,26.70
2023-01-26T22:56:52.035Z,29.47
2023-01-26T22:59:19.359Z,29.57
2023-01-26T23:01:46.861Z,30.17
2023-01-26T23:04:14.158Z,30.30
2023-01-26T23:06:41.900Z,31.00
2023-01-26T23:09:09.183Z,31.07
2023-01-26T23:11:36.393Z,29.37
2023-01-26T23:14:03.693Z,29.97
2023-01-26T23:16:31.138Z,25.77
2023-01-26T23:18:59.704Z,29.53
2023-01-26T23:21:27.683Z,30.73
2023-01-26T23:23:55.027Z,26.60
2023-01-26T23:26:22.325Z,28.10
2023-01-26T23:28:49.751Z,28.20
2023-01-26T23:31:17.680Z,27.83
2023-01-26T23:33:45.447Z,28.93
2023-01-26T23:36:13.496Z,30.37
2023-01-26T23:38:41.146Z,25.90
2023-01-26T23:41:08.797Z,27.53
2023-01-26T23:43:36.079Z,24.60
2023-01-26T23:46:05.233Z,27.13
2023-01-26T23:48:32.529Z,27.40
2023-01-26T23:51:19.403Z,25.00
2023-01-26T23:53:46.689Z,29.23
2023-01-26T23:56:16.041Z,25.37
2023-01-26T23:58:43.622Z,22.20
